Ladd AAF Airfield
PAFB : rendu visible

Aérodrome :











RETROUVEZ-NOUS SUR...

 
LOGIN :

S'inscrire | Disclaimer

   EN    FR    IT 

 









Légende :    VFR   VFR Marginal   IFR   IFR Intensif   IFR Très Intensif
Visi : 
Plafond : 
>= 8 km
>= 3000ft
5 à 8 km
1000 à 3000 ft
1500m à 5 km
500 à 1000 ft
800 à 1500m
200 à 500 ft
< 800m
< 200 ft
Symboles :   Orages  Brouillard  Fortes neiges  Fortes précipitations  Vent > 20 kt






- Altitude de l'aérodrome : 454 ft
- Code IATA : FBK


PAFB - Ladd AAF

DERNIER METAR :
  • 241931Z 26003KT 7SM -RA OVC009 04/03 A2933 RMK AO2A SLP937

METARs EXPIRÉS :
  • 241923Z 27003KT 7SM -RA SCT007 OVC010 04/03 A2933 RMK AO2A SLP937
  • 241906Z 00000KT 7SM -RA SCT007 OVC011 04/03 A2932 RMK AO2A SLP933
  • 241858Z 29003KT 7SM -RA BKN007 OVC012 04/03 A2932 RMK AO2A BKN V SCT SLP933 P0000 T00410033
  • 241842Z 29003KT 8SM -RA BKN006 OVC013 04/03 A2932 RMK AO2A BKN V SCT SLP933
  • 241823Z 28003KT 7SM -RA BKN006 OVC014 04/03 A2932 RMK AO2A SLP933
  • 241803Z 00000KT 7SM -RA BKN006 OVC013 04/03 A2931 RMK AO2A BKN V SCT SLP930
  • 241758Z 00000KT 7SM -RA BKN005 OVC012 04/03 A2931 RMK AO2A RAE1658RAB1658E05RAB05 SLP930 P0001 60008 T00400034 10040 20033 52008
  • 241743Z 28003KT 7SM -RA BKN005 OVC012 04/04 A2931 RMK AO2A RAE1658UPB1658E05RAB05 SLP930
  • 241658Z 00000KT 7SM -RA OVC004 04/04 A2930 RMK AO2A SLP927 P0002 T00370036

TAF AMD TAF PAFB
Valide du 24 à 18h jusqu'au 25 à 21h UTC


241840Z 2418/2521 VRB06KT 8000 -RA BKN006 600355 QNH2928INS
BECMG 2418/2419 VRB06KT 8000 -RA BR OVC006 600255 QNH2930INS
BECMG 2420/2421 VRB06KT 8000 -RA BR OVC004 600205 QNH2931INS
BECMG 2506/2507 VRB06KT 8000 BR BKN020 600205 QNH2935INS
BECMG 2514/2515 VRB06KT 9999 NSW OVC025 600285 QNH2936INS TX05/2501Z TN01/2513Z
FIR PAZA / Amérique du Nord



MET'MAP, la Météo Aéronautique d'un coup d'oeil ! - Copyright ORBIFLY Décembre 2007 - Disclaimer

ORBIFLY MET'MAP TEAM :

Programmation & Développement : Alexandra Zaïnal
Sur une idée originale de : Baudouin d'Aumeries
Assistance à la programmation : Marc-Olivier Méhu
Soutien technique & logistique : Manuel Goepfert

Contact : metmap@orbifly.com




SOURCES & CREDITS :

   NOAA       Earth
Advisory